NWS Home NWS Lubbock West Texas Mesonet Latest Conditions as of 0947 AM, Mon Jun 27, 2016

Latest   N   C   S   Daily Sum   3hrΔ   24hrΔ   Soil Data 
Site Map   24hr Precip   72hr Precip   Google Plot


Station Time of Last Temp Dew Pt. RH Wind Direction Wind Speed Wind Gust Max Wind Max Temp Min Temp Max RH Min RH Altimeter 1HR Rain Today's Rain Solar Rad
Abernathy 5ENE  09:40 AM 76 64 68% S1015 15 mph 167° @ 0940 AM 76 62 95 68 30.28" 0 0 402
Aiken 3WSW  09:40 AM 77 65 67% SE710 12 mph 159° @ 1242 AM 77 62 97 64 30.29" 0 0 550
Amarillo 15NNW   09:40 AM 78 64 62% W45 13 mph 175° @ 1244 AM 78 63 94 62 30.27" 0 0 515
Amarillo 7SSE  09:40 AM 75 64 68% SW79 11 mph 225° @ 0932 AM 75 59 97 67 30.30" 0 0 531
Amarillo 9NNE  09:40 AM 78 64 62% S56 13 mph 200° @ 0937 AM 78 61 98 62 30.27" 0 0 510
Amherst 1NE  09:40 AM 74 63 73% S1216 16 mph 173° @ 0940 AM 74 61 95 72 30.28" 0 0 593
Andrews 2E  09:40 AM 73 64 75% SE912 13 mph 124° @ 0935 AM 73 65 89 75 30.23" 0 0 207
Anton 6SSW  09:40 AM 74 64 74% SE1216 16 mph 149° @ 0940 AM 74 63 97 74 30.27" 0 0 376
Aspermont 3NE  09:40 AM 81 65 59% SW811 12 mph 215° @ 0905 AM 82 68 88 58 30.18" 0 0 259
Big Lake 1WNW  09:40 AM 66 64 94% SE1114 21 mph 118° @ 0852 AM 72 66 95 85 30.23" 0.01 0.01 91
Bootleg 11WNW  09:40 AM 72 61 68% S1013 13 mph 181° @ 0940 AM 72 60 95 68 30.35" 0 0 464
Boys Ranch 1WSW  09:40 AM 79 64 59% SE33 7 mph 159° @ 0928 AM 79 58 97 59 30.27" 0 0 530
Brownfield 2S  09:40 AM 73 63 73% SE914 17 mph 116° @ 0905 AM 73 63 91 73 30.26" 0 0 310
Canadian 6E  09:40 AM 80 68 67% W34 11 mph 126° @ 0122 AM 80 65 96 67 30.20" 0 0 547
Caprock Canyons State Park  09:40 AM 80 64 58% S78 11 mph 199° @ 1245 AM 81 66 90 56 30.25" 0 0 442
Childress 2NNE  09:40 AM 83 66 60% S68 11 mph 176° @ 0805 AM 83 68 96 59 30.20" 0 0 544
Clarendon 2WSW  09:40 AM 77 65 66% SW710 14 mph 151° @ 1215 AM 77 63 94 66 30.25" 0 0 532
Claude 12SW  09:40 AM 75 65 72% S67 13 mph 142° @ 1229 AM 75 66 90 72 30.29" 0 0 528
Clyde 2WNW  09:40 AM 79 70 73% S57 13 mph 236° @ 0837 AM 79 71 91 73 30.21" 0 0 549
Coyanosa 2N  09:40 AM 68 68 100% E78 21 mph 63° @ 0213 AM 73 66 100 76 30.19" 0.33 2.22 72
Dell City  09:40 AM 78 61 57% NE56 11 mph 243° @ 1232 AM 78 65 82 54 30.23" 0 0 390
Denver City 7WNW  09:40 AM 70 61 75% SE1114 16 mph 105° @ 0815 AM 70 59 91 72 30.27" 0 0 205
Dimmitt 2NE  09:40 AM 73 64 76% S811 12 mph 192° @ 0915 AM 73 59 97 76 30.30" 0 0 497
Dozier 3W  09:40 AM 81 69 66% SW78 11 mph 199° @ 0910 AM 81 66 96 65 30.23" 0 0 539
Floydada 2NNE  09:40 AM 77 64 64% SE710 12 mph 165° @ 0920 AM 77 62 97 64 30.27" 0 0 541
Fluvanna 3WNW  09:15 AM 70 65 85% N24 10 mph 142° @ 0740 AM 70 65 89 80 30.23" 0 0 98
Fort Chadbourne  09:40 AM 74 69 83% SE33 19 mph 207° @ 0410 AM 74 69 98 82 30.20" 0 0.04 415
Fort McKavett  08:00 AM 69 68 95% W34 16 mph 143° @ 0320 AM 75 68 99 84 30.21" 0 0 29
Friona 2NE  09:40 AM 72 62 71% S810 11 mph 150° @ 0115 AM 72 57 97 71 30.32" 0 0 520
Gail 2ESE  09:40 AM 73 67 84% NE23 7 mph 61° @ 0835 AM 73 64 95 83 30.22" 0 0 325
Goodlett 3W  09:40 AM 83 66 57% S810 10 mph 206° @ 0935 AM 83 69 91 57 30.18" 0 0 523
Goodnight  09:40 AM 78 66 68% SW810 11 mph 177° @ 1253 AM 78 62 98 67 30.28" 0 0 550
Graham 5SSW  09:40 AM 72 65 78% E68 10 mph 60° @ 0835 AM 73 66 90 77 30.24" 0 0 259
Guadalupe Mtns Natl Park  09:40 AM 69 60 74% E1315 15 mph 74° @ 0940 AM 69 61 96 63 30.34" 0 0 512
Guthrie 10WSW  09:40 AM 81 66 62% SW610 12 mph 232° @ 0920 AM 81 67 86 62 30.19" 0 0 450
Hart 3N  09:40 AM 74 63 71% S510 10 mph 190° @ 0935 AM 75 60 98 70 30.29" 0 0 521
Haskell 1NW  09:40 AM 81 65 62% SW913 15 mph 212° @ 0935 AM 82 72 87 62 30.17" 0 0 472
Hereford 2NW  09:40 AM 73 59 65% S812 12 mph 189° @ 0940 AM 73 58 89 65 30.30" 0 0 527
Hobbs NM 5NW  09:40 AM 70 63 78% SE1011 18 mph 119° @ 1215 AM 72 62 89 65 30.29" 0 0 293
Jayton 1SSE  09:40 AM 80 65 62% SW811 14 mph 200° @ 0935 AM 80 68 87 61 30.19" 0 0 511
Junction 1SSW  09:40 AM 78 69 74% S12 10 mph 136° @ 0257 AM 78 72 93 74 30.19" 0 0 329
Knox City 3NW  09:40 AM 84 65 55% SW812 17 mph 220° @ 0910 AM 84 71 80 54 30.17" 0 0 259
Lake Alan Henry 1NW  09:40 AM 78 68 72% S23 15 mph 99° @ 0746 AM 78 67 93 72 30.21" 0 0.38 554
Lamesa 2SE  09:40 AM 76 65 71% E914 16 mph 119° @ 0855 AM 76 64 94 68 30.25" 0 0 463
Levelland 4S  09:40 AM 75 62 65% SE1216 19 mph 125° @ 0930 AM 75 61 90 65 30.27" 0 0 554
Lomax 1SSE  09:40 AM 76 66 72% E1618 18 mph 103° @ 0938 AM 76 68 96 72 30.21" 0 0 566
Lubbock 3WNW TTU  09:40 AM 78 63 64% SE1013 15 mph 153° @ 0925 AM 78 64 91 64 30.26" 0 0 379
McLean 1E  09:40 AM 77 66 72% SW811 12 mph 149° @ 1205 AM 77 67 93 72 30.24" 0 0 595
Memphis 1NE  09:40 AM 80 68 67% S48 8 mph 132° @ 1230 AM 80 66 96 67 30.21" 0 0 462
Menard 2NW   09:40 AM 77 70 81% W11 6 mph 91° @ 0312 AM 77 71 96 80 30.20" 0 0 260
Mertzon 3NNE  09:40 AM 73 67 83% S78 28 mph 176° @ 0439 AM 73 67 97 82 30.19" 0 0.52 728
Morton 1ENE  09:40 AM 75 62 66% SE1216 19 mph 149° @ 0915 AM 75 61 90 64 30.28" 0 0 557
Muleshoe 2SSW  09:40 AM 74 61 69% SE912 12 mph 127° @ 0930 AM 74 56 99 69 30.30" 0 0 523
Northfield 1S  09:40 AM 82 68 65% E27 13 mph 178° @ 1205 AM 82 68 95 63 30.21" 0 0 493
O'Donnell 1N  09:40 AM 72 64 79% E811 13 mph 90° @ 0935 AM 72 64 99 79 30.25" 0 0 454
Odell 4ENE  09:40 AM 83 71 68% W34 17 mph 110° @ 1208 AM 83 68 97 68 30.18" 0 0 480
Olton 6S  09:40 AM 74 63 70% S710 13 mph 157° @ 0930 AM 74 60 94 70 30.28" 0 0 510
Paducah 10SW  09:40 AM 81 66 64% SW37 10 mph 206° @ 0125 AM 81 68 90 64 30.20" 0 0 458
Palo Duro Canyon SP Floor  09:40 AM 78 66 66% N00 8 mph 135° @ 0124 AM 78 64 98 66 30.25" 0 0 507
Palo Duro Canyon State Park Rim  09:40 AM 77 65 67% S46 10 mph 221° @ 0919 AM 77 64 91 66 30.30" 0 0 47
Pampa 2E  09:40 AM 78 65 65% SW812 12 mph 232° @ 0905 AM 78 64 97 65 30.27" 0 0 511
Panhandle 1SSW  09:40 AM 77 64 65% SW1014 14 mph 226° @ 0940 AM 77 60 97 64 30.29" 0 0 561
Plains 3N  09:40 AM 71 62 77% SE913 14 mph 124° @ 0925 AM 71 61 92 77 30.28" 0 0 209
Plainview 1S  09:40 AM 76 64 68% SE48 13 mph 157° @ 1215 AM 76 63 96 68 30.27" 0 0 504
Post 1NE  09:40 AM 72 68 91% N57 14 mph 90° @ 0830 AM 73 66 94 72 30.22" 0.08 0.41 499
Ralls 1SE  09:40 AM 77 63 64% S1015 19 mph 171° @ 0930 AM 78 64 90 63 30.27" 0 0 547
Reese Center  09:40 AM 75 63 68% SE1013 17 mph 139° @ 0925 AM 75 64 89 68 30.26" 0 0 320
Roaring Springs 3N  09:40 AM 77 66 70% NW35 9 mph 276° @ 0415 AM 78 66 91 68 30.24" 0 0 442
San Angelo 7NW  09:40 AM 70 66 89% SE69 20 mph 130° @ 0450 AM 72 68 94 87 30.19" 0 1.65 299
Seagraves 1SW  09:40 AM 72 64 78% SE913 17 mph 136° @ 0840 AM 72 64 90 69 30.26" 0 0 168
Seminole 2NNE  09:40 AM 72 64 76% SE711 17 mph 125° @ 0820 AM 72 63 89 75 30.25" 0 0 220
Seymour 3NW  09:40 AM 85 68 57% W69 10 mph 102° @ 0325 AM 85 71 87 57 30.16" 0 0 538
Sierra Blanca 1SSE  09:40 AM 75 63 67% E45 13 mph 110° @ 0114 AM 77 68 84 54 30.26" 0 0 522
Silverton 7ESE  09:40 AM 78 64 64% W47 10 mph 169° @ 1235 AM 78 61 95 64 30.27" 0 0 497
Slaton 2NE  09:40 AM 70 65 89% SE911 22 mph 120° @ 0915 AM 76 66 92 67 30.25" 0 0 147
Snyder 3E  09:40 AM 75 68 81% SE710 11 mph 147° @ 0935 AM 76 68 99 77 30.21" 0 0.06 326
Snyder 3SSW  09:40 AM 74 67 78% SE912 12 mph 146° @ 0940 AM 74 68 95 78 30.22" 0 0 398
Spur 1W  09:40 AM 79 64 61% W58 16 mph 209° @ 0855 AM 79 67 85 61 30.20" 0 0 489
St. Lawrence 5SW  09:40 AM 72 67 86% SE1416 23 mph 116° @ 0750 AM 72 68 94 85 30.20" 0 0 701
Sterling City 4WSW  09:40 AM 71 67 85% SE57 20 mph 113° @ 0744 AM 71 67 98 85 30.21" 0 0 309
Sundown 8WSW  09:40 AM 73 62 72% SE1115 15 mph 131° @ 0850 AM 73 59 93 72 30.28" 0 0 333
Sweetwater 11SW   09:40 AM 74 68 83% SE1011 15 mph 180° @ 0538 AM 74 68 95 82 30.23" 0 0 629
Tahoka 3NNE  09:40 AM 73 64 73% SE68 14 mph 99° @ 0921 AM 76 61 94 68 30.25" 0 0 244
Tarzan 2WNW  09:40 AM 73 65 78% SE79 20 mph 120° @ 0541 AM 73 69 87 74 30.22" 0 0 244
Tatum NM 2SW  09:40 AM 72 60 67% E913 15 mph 91° @ 0850 AM 74 57 90 62 30.29" 0 0 216
Throckmorton 1SW  09:40 AM 82 71 68% SW811 13 mph 247° @ 0913 AM 83 71 93 67 30.17" 0 0 432
Tulia 2ENE  09:40 AM 76 65 71% SW25 9 mph 218° @ 0310 AM 76 59 99 71 30.28" 0 0 481
Turkey 2WSW  09:40 AM 81 66 63% SE14 9 mph 187° @ 1230 AM 82 67 92 62 30.23" 0 0 503
Umbarger 3NNE  09:40 AM 75 61 63% SW69 14 mph 210° @ 0932 AM 75 57 96 63 30.31" 0 0 553
Vigo Park  09:40 AM 77 64 64% W45 10 mph 187° @ 1248 AM 77 59 97 64 30.29" 0 0 534
Wall 1E  09:40 AM 69 65 90% N00 22 mph 221° @ 0545 AM 73 67 93 85 30.20" 0 1.67 238
Weinert 2NNE  09:40 AM 83 68 60% SW89 18 mph 223° @ 0920 AM 84 70 87 58 30.17" 0 0 355
Welch  09:40 AM 75 65 69% E1417 17 mph 109° @ 0940 AM 76 64 94 69 30.25" 0 0 191
White River Lake 6NW  09:40 AM 78 62 61% S912 18 mph 177° @ 0910 AM 78 66 87 61 30.23" 0 0 531
Wolfforth 6SSW  09:40 AM 77 63 64% SE1115 20 mph 136° @ 0930 AM 77 62 89 64 30.26" 0 0 533

West Texas Mesonet Home   Site Map/Menu  NWS Lubbock Soil Data  Daily Summary Page  24hr Precip  72hr Precip  Google Plot